This is the latest recevied weather packets stored in our database for station/object HP1COO-13. If no packets are shown the sender has not sent any weather packets the latest 10 day(s).
| Time | Temp. | Humidity | Pressure | Rain* | Wind** | Luminosity | Snow |
|---|---|---|---|---|---|---|---|
| 1788466576 | 26.67° C | 95% | 1006.6 hPa | 5.33 mm | - | - | - |
| 1788465943 | 26.67° C | 96% | 1006.8 hPa | 6.6 mm | - | - | - |
| 1788465310 | 26.67° C | 96% | 1006.6 hPa | 6.86 mm | - | - | - |
| 1788464677 | 26.11° C | 95% | 1006.8 hPa | 7.87 mm | - | - | - |
| 1788464044 | 26.67° C | 95% | 1007.5 hPa | 6.35 mm | - | - | - |
| 1788463411 | 26.67° C | 93% | 1007.4 hPa | 4.06 mm | - | - | - |
| 1788462778 | 26.67° C | 92% | 1007.3 hPa | 2.54 mm | - | - | - |
| 1788462145 | 26.67° C | 91% | 1007.4 hPa | 2.29 mm | - | - | - |
| 1788460879 | 26.67° C | 92% | 1006.9 hPa | 0 mm | - | - | - |
| 1788460246 | 27.22° C | 90% | 1006.9 hPa | 0 mm | - | - | - |
| 1788458980 | 29.44° C | 79% | 1007 hPa | 0 mm | - | - | - |
| 1788458347 | 30.56° C | 76% | 1007.1 hPa | 0 mm | - | - | - |
| 1788457714 | 32.22° C | 75% | 1007.2 hPa | 0 mm | - | - | - |
| 1788457081 | 32.78° C | 73% | 1007.4 hPa | 0 mm | - | - | - |
| 1788456696 | 33.33° C | 70% | 1008 hPa | 0 mm | - | - | - |
| 1788456448 | 32.78° C | 68% | 1007.6 hPa | 0 mm | - | - | - |
| 1788455815 | 33.33° C | 69% | 1007.7 hPa | 0 mm | - | - | - |
| 1788455182 | 33.89° C | 69% | 1007.9 hPa | 0 mm | - | - | - |
| 1788454549 | 33.33° C | 70% | 1007.9 hPa | 0 mm | - | - | - |
| 1788453916 | 32.22° C | 73% | 1008.5 hPa | 0 mm | - | - | - |
| 1788453283 | 32.22° C | 74% | 1008.4 hPa | 0 mm | - | - | - |
| 1788452650 | 32.22° C | 73% | 1008.9 hPa | 0 mm | - | - | - |
| 1788452017 | 32.22° C | 74% | 1009.2 hPa | 0 mm | - | - | - |
| 1788451384 | 32.78° C | 72% | 1009 hPa | 0 mm | - | - | - |
| 1788450751 | 32.78° C | 70% | 1009.1 hPa | 0 mm | - | - | - |
* Rain latest hour (hover to see other rain measurements)
** Current wind speed in m/s (hover to see current wind gust speed)